aviador You're here:

LUKK Decoded Metar

KISHINEV in MOLDOVA
Report Time2017-10-18 19:30:00
UTC Time2017-10-18 20:00:59
Flight Rules vfr VFR
Wind210° at 05 kt
W.Decomp.*RWY 26: 2.8 kt HW 4.1 kt LCW
W.Rank210° ranks 17
Current wind is below 210° avg. (5.9)
Visibility9999 m
Phenomena:N/A
Clouds:N/A
Expected CloudBase > 2,000 ft AGL from Temp-Dew spread
CeilingNone
Temp16°C (ISA +2)
Dew Point11°C (72% RH)
AAT14.5°C
QNH1018 hPa
Density Alt620 ft
Elevation400 ft
Report Wrong Elevation
Raw Report
METAR LUKK 181930Z 21005KT CAVOK 16/11 Q1018 R08/D NOSIG=

Extra information for LUKK:More info

Metar Taf Metar & Taf Last 4 Metars F.Rules Stats Wind Profile Meteogram Temp Stats Airport Information Weather charts Add Link Nearby VenuesMetar ALERT Operation Metar Decoded Social comments